METAR - Ísland

Uppfært síðast 21.06.2018 - kl. 19:33

SIGMET síðustu 6 klst.

Engin SIGMET skeyti bárust síðustu 6 klst.

METAR síðustu 3 klst

Flugv.TímiSkeyti
BIAR2018-06-21 19.00METAR BIAR 211900Z 19015G25KT 9999 FEW050 BKN067 13/07 Q1016
BIAR2018-06-21 18.00METAR BIAR 211800Z 19015G25KT 9999 BKN051 14/07 Q1016
BIAR2018-06-21 17.00METAR COR BIAR 211700Z 19016G26KT 9999 BKN050 14/07 Q1017
BIAR2018-06-21 17.00METAR BIAR 211700Z 19016KT 9999 SCT050 14/07 Q1017
BIBD2018-06-21 17.00METAR BIBD 211700Z 20017G27KT 9999 RA BR BKN015 OVC020 11/08 Q1013
BIEG2018-06-21 19.00METAR BIEG 211900Z 25010KT 9999 -DZ BKN055 17/07 Q1017
BIEG2018-06-21 18.00METAR BIEG 211800Z 21010KT 9999 BKN060 16/05 Q1017
BIEG2018-06-21 17.00METAR BIEG 211700Z 21012KT CAVOK 16/04 Q1017
BIHN2018-06-21 19.00METAR BIHN 211900Z 23005KT 9999 -SHRA FEW006 FEW012 OVC080 11/08 Q1021
BIHN2018-06-21 18.00METAR BIHN 211800Z 23011KT 9999 FEW003 FEW010 OVC080 10/09 Q1021
BIHN2018-06-21 17.00METAR BIHN 211700Z 22015KT 9999 -SHRA BR FEW003 SCT006 OVC080 10/08 Q1021
BIIS2018-06-21 19.00METAR BIIS 211900Z 22013G23KT 9999 -SHRA FEW018 BKN025 OVC030 12/07 Q1011
BIIS2018-06-21 18.00METAR BIIS 211800Z 21011KT 9999 VCSH FEW018 BKN025 OVC033 13/07 Q1011
BIIS2018-06-21 17.00METAR BIIS 211700Z 20010G21KT 9999 -SHRA FEW018 BKN030 OVC036 13/07 Q1012
BIKF2018-06-21 19.30METAR BIKF 211930Z 17025KT 8000 -RA BKN007 OVC012 09/09 Q1015
BIKF2018-06-21 19.00METAR BIKF 211900Z 17022KT 7000 -RA BKN007 OVC012 10/09 Q1015
BIKF2018-06-21 18.30METAR BIKF 211830Z 17022KT 9999 SCT007 OVC010 10/09 Q1016
BIKF2018-06-21 18.00METAR BIKF 211800Z 17024KT 9999 OVC008 10/09 Q1016
BIKF2018-06-21 17.30METAR BIKF 211730Z 18022KT 9999 -DZRA FEW006 BKN009 OVC033 10/09 Q1017
BIKF2018-06-21 17.00METAR BIKF 211700Z 17021KT 8000 -RA FEW006 BKN009 OVC035 10/09 Q1017
BIRK2018-06-21 19.00METAR BIRK 211900Z 17020KT 9999 BKN012 OVC022 10/07 Q1017
BIRK2018-06-21 18.00METAR BIRK 211800Z 18017KT 9999 FEW013 SCT017 BKN021 10/07 Q1018
BIRK2018-06-21 17.00METAR BIRK 211700Z 17017KT 9999 -RA BKN012 OVC062 11/08 Q1018
BIVM2018-06-21 18.00METAR BIVM 211800Z 18015KT 9999 BKN008 OVC012 10/10 Q1020
BIVM2018-06-21 17.00METAR BIVM 211700Z 19016KT 9999 -DZ SCT004 BKN008 OVC012 10/10 Q1021

Textaspár eru skrifaðar af vakthafandi veðurfræðingi á Veðurstofu Íslands.




Aðrir tengdir vefir



Þetta vefsvæði byggir á Eplica